Time;durP1;ratioP1;P1;durP2;ratioP2;P2;SDS_P1;SDS_P2;PMS_P1;PMS_P2;Temp;Humidity;BMP_temperature;BMP_pressure;BME280_temperature;BME280_humidity;BME280_pressure;Samples;Min_cycle;Max_cycle;Signal;HPM_P1;HPM_P2
2023/05/11 00:02:00;;;;;;;1.90;0.70;;;12.40;99.90;;;;;;5060268;28;20375;-82
2023/05/11 00:04:25;;;;;;;1.50;0.60;;;12.50;99.90;;;;;;5058195;28;20391;-81
2023/05/11 00:06:51;;;;;;;2.28;0.70;;;12.50;99.90;;;;;;5039250;28;20910;-81
2023/05/11 00:09:16;;;;;;;2.20;0.80;;;12.40;99.90;;;;;;5040092;28;20389;-82
2023/05/11 00:11:42;;;;;;;2.73;0.77;;;12.50;99.90;;;;;;5058200;28;20404;-83
2023/05/11 00:14:08;;;;;;;2.30;0.80;;;12.40;99.90;;;;;;5040885;28;20419;-83
2023/05/11 00:16:33;;;;;;;1.60;0.83;;;12.20;99.90;;;;;;5078902;28;20396;-82
2023/05/11 00:18:59;;;;;;;1.60;0.70;;;12.40;99.90;;;;;;5072963;28;21036;-83
2023/05/11 00:21:24;;;;;;;1.35;1.10;;;12.20;99.90;;;;;;5079570;28;20407;-82
2023/05/11 00:23:50;;;;;;;2.10;0.80;;;12.30;99.90;;;;;;5071037;28;20376;-82
2023/05/11 00:26:16;;;;;;;2.17;0.70;;;12.30;99.90;;;;;;5078559;28;20386;-82
2023/05/11 00:28:41;;;;;;;0.90;0.80;;;12.20;99.90;;;;;;5059742;28;20438;-82
2023/05/11 00:31:07;;;;;;;1.30;1.00;;;12.30;99.90;;;;;;5078003;28;20376;-81
2023/05/11 00:33:32;;;;;;;1.77;0.80;;;11.80;99.90;;;;;;5059566;28;20886;-82
2023/05/11 00:35:58;;;;;;;3.30;0.90;;;12.30;99.90;;;;;;5076592;28;20767;-82
2023/05/11 00:38:23;;;;;;;2.10;0.82;;;12.30;99.90;;;;;;5051225;28;20380;-82
2023/05/11 00:40:49;;;;;;;2.10;0.80;;;12.30;99.90;;;;;;5080429;28;20391;-82
2023/05/11 00:43:15;;;;;;;2.75;0.77;;;12.30;99.90;;;;;;5086605;28;20379;-81
2023/05/11 00:45:41;;;;;;;1.08;0.65;;;12.30;99.90;;;;;;5076261;28;20418;-80
2023/05/11 00:48:07;;;;;;;4.30;0.80;;;13.40;99.90;;;;;;5080728;28;20758;-82
2023/05/11 00:50:34;;;;;;;2.50;1.00;;;12.30;99.90;;;;;;5059970;28;20731;-82
2023/05/11 00:53:00;;;;;;;2.05;0.60;;;12.30;99.90;;;;;;5078435;28;20390;-83
2023/05/11 00:55:26;;;;;;;1.88;0.80;;;12.30;99.90;;;;;;5048187;28;20763;-83
2023/05/11 00:57:52;;;;;;;2.30;0.80;;;12.30;99.90;;;;;;5039816;28;20469;-82
2023/05/11 01:00:18;;;;;;;2.25;0.80;;;12.30;99.90;;;;;;5039564;28;20429;-82
2023/05/11 01:02:44;;;;;;;1.63;0.90;;;11.80;99.90;;;;;;5058927;28;20445;-82
2023/05/11 01:05:10;;;;;;;1.23;0.80;;;12.40;99.90;;;;;;5039532;28;20420;-83
2023/05/11 01:08:20;;;;;;;1.05;0.80;;;11.80;99.90;;;;;;5066445;28;20382;-81
2023/05/11 01:11:05;;;;;;;1.65;0.70;;;12.30;99.90;;;;;;4954106;29;20398;-82
2023/05/11 01:13:38;;;;;;;2.70;1.10;;;12.30;99.90;;;;;;5031570;28;20435;-83
2023/05/11 01:16:13;;;;;;;1.00;0.90;;;12.30;99.90;;;;;;5039008;28;20389;-81
2023/05/11 01:18:50;;;;;;;1.58;1.10;;;12.30;99.90;;;;;;5045965;28;20378;-81
2023/05/11 01:21:16;;;;;;;1.40;0.82;;;11.80;99.90;;;;;;5060902;28;20763;-81
2023/05/11 01:23:53;;;;;;;1.50;0.90;;;12.10;99.90;;;;;;5059598;28;20739;-81
2023/05/11 01:26:45;;;;;;;1.52;1.17;;;12.00;99.90;;;;;;5059185;28;21134;-81
2023/05/11 01:29:28;;;;;;;3.72;1.40;;;12.00;99.90;;;;;;5060724;28;20737;-82
2023/05/11 01:31:55;;;;;;;1.25;0.88;;;11.90;99.90;;;;;;5041812;28;20389;-81
2023/05/11 01:34:30;;;;;;;1.30;0.90;;;11.00;99.90;;;;;;5041644;28;20895;-81
2023/05/11 01:36:59;;;;;;;1.40;1.00;;;11.70;99.90;;;;;;5040439;28;20884;-82
2023/05/11 01:39:34;;;;;;;1.48;1.00;;;11.70;99.90;;;;;;5041698;28;20406;-81
2023/05/11 01:42:06;;;;;;;2.03;1.20;;;11.80;99.90;;;;;;5041275;28;20402;-81
2023/05/11 01:44:33;;;;;;;1.80;1.00;;;12.00;99.90;;;;;;5040806;28;20381;-81
2023/05/11 01:47:01;;;;;;;1.83;1.30;;;11.70;99.90;;;;;;5057658;28;20457;-82
2023/05/11 01:49:31;;;;;;;3.95;1.27;;;11.40;99.90;;;;;;5058797;28;20411;-81
2023/05/11 01:51:57;;;;;;;1.97;1.10;;;11.70;99.90;;;;;;5059039;28;20386;-82
2023/05/11 01:54:24;;;;;;;2.10;0.90;;;12.80;99.90;;;;;;5044412;28;20388;-83
2023/05/11 01:56:51;;;;;;;1.08;0.93;;;13.50;99.90;;;;;;5060129;28;20796;-82
2023/05/11 01:59:18;;;;;;;3.75;1.40;;;12.30;99.90;;;;;;5060428;28;20494;-82
2023/05/11 02:01:44;;;;;;;3.60;1.10;;;11.80;99.90;;;;;;5078753;28;20376;-82
2023/05/11 02:04:12;;;;;;;1.20;0.80;;;11.70;99.90;;;;;;5081250;28;20380;-82
2023/05/11 02:06:38;;;;;;;1.90;1.00;;;11.50;99.90;;;;;;5045455;28;20405;-81
2023/05/11 02:09:06;;;;;;;1.20;0.90;;;11.70;99.90;;;;;;5044387;28;20446;-82
2023/05/11 02:11:33;;;;;;;2.10;1.00;;;11.80;99.90;;;;;;5057907;28;20501;-82
2023/05/11 02:14:00;;;;;;;2.63;1.00;;;11.70;99.90;;;;;;5058187;28;20396;-81
2023/05/11 02:16:28;;;;;;;3.10;1.40;;;11.50;99.90;;;;;;5044373;28;20845;-82
2023/05/11 02:18:55;;;;;;;3.03;1.00;;;11.60;99.90;;;;;;5055802;28;20390;-81
2023/05/11 02:21:22;;;;;;;1.25;1.00;;;11.50;99.90;;;;;;5064078;28;20399;-81
2023/05/11 02:23:50;;;;;;;1.90;0.93;;;11.30;99.90;;;;;;5064352;28;20449;-81
2023/05/11 02:26:16;;;;;;;2.35;1.10;;;11.40;99.90;;;;;;5072889;28;20375;-81
2023/05/11 02:28:42;;;;;;;2.60;1.17;;;11.50;99.90;;;;;;5082129;28;20376;-81
2023/05/11 02:31:16;;;;;;;2.17;1.17;;;11.20;99.90;;;;;;5081843;28;20423;-82
2023/05/11 02:33:46;;;;;;;2.38;1.20;;;11.40;99.90;;;;;;5064481;28;20461;-82
2023/05/11 02:36:16;;;;;;;2.70;1.33;;;11.40;99.90;;;;;;5063395;28;20973;-82
2023/05/11 02:38:44;;;;;;;1.95;1.10;;;11.00;99.90;;;;;;5056283;28;20379;-82
2023/05/11 02:41:14;;;;;;;2.47;1.00;;;11.40;99.90;;;;;;5082580;28;20431;-82
2023/05/11 02:43:45;;;;;;;2.95;1.23;;;11.40;99.90;;;;;;5082435;28;20380;-81
2023/05/11 02:46:15;;;;;;;1.97;1.40;;;11.40;99.90;;;;;;5081303;28;20458;-82
2023/05/11 02:48:45;;;;;;;2.83;1.30;;;11.20;99.90;;;;;;5082186;28;20435;-81
2023/05/11 02:51:14;;;;;;;2.45;1.30;;;11.10;99.90;;;;;;5064861;28;20984;-82
2023/05/11 02:53:41;;;;;;;3.95;1.30;;;11.00;99.90;;;;;;5063418;28;20992;-81
2023/05/11 02:56:08;;;;;;;2.15;1.08;;;11.00;99.90;;;;;;5050976;28;20400;-80
2023/05/11 02:58:33;;;;;;;3.40;1.15;;;11.00;99.90;;;;;;5076030;28;20379;-80
2023/05/11 03:00:59;;;;;;;1.20;1.10;;;10.90;99.90;;;;;;5091370;28;20406;-81
2023/05/11 03:03:26;;;;;;;2.10;1.30;;;10.70;99.90;;;;;;5064888;28;20467;-80
2023/05/11 03:05:51;;;;;;;1.88;1.10;;;10.90;99.90;;;;;;5049569;28;20396;-81
2023/05/11 03:08:17;;;;;;;2.30;1.10;;;11.10;99.90;;;;;;5062681;28;20389;-81
2023/05/11 03:10:43;;;;;;;1.63;1.27;;;11.00;99.90;;;;;;5043856;28;20389;-80
2023/05/11 03:13:09;;;;;;;2.58;1.50;;;10.80;99.90;;;;;;5060081;28;20408;-79
2023/05/11 03:15:36;;;;;;;2.10;1.40;;;11.00;99.90;;;;;;5041276;28;20393;-79
2023/05/11 03:18:04;;;;;;;1.20;1.00;;;11.00;99.90;;;;;;5057491;28;20396;-81
2023/05/11 03:20:32;;;;;;;1.67;1.30;;;11.00;99.90;;;;;;5041627;28;20455;-80
2023/05/11 03:22:59;;;;;;;2.28;1.60;;;11.00;99.90;;;;;;5060768;28;20417;-80
2023/05/11 03:25:27;;;;;;;1.00;1.00;;;11.00;99.90;;;;;;5041363;28;20794;-81
2023/05/11 03:27:54;;;;;;;2.05;1.40;;;11.00;99.90;;;;;;5043131;28;20805;-81
2023/05/11 03:30:21;;;;;;;1.30;1.20;;;10.50;99.90;;;;;;5050898;28;20425;-81
2023/05/11 03:32:46;;;;;;;2.97;1.70;;;10.80;99.90;;;;;;5050364;28;20389;-81
2023/05/11 03:35:12;;;;;;;2.50;1.30;;;11.00;99.90;;;;;;5062414;28;20438;-81
2023/05/11 03:37:38;;;;;;;2.30;1.30;;;11.10;99.90;;;;;;5043628;28;20392;-81
2023/05/11 03:40:05;;;;;;;2.03;1.73;;;11.10;99.90;;;;;;5043043;28;20445;-81
2023/05/11 03:42:32;;;;;;;3.10;1.30;;;11.00;99.90;;;;;;5051798;28;20376;-81
2023/05/11 03:45:00;;;;;;;5.22;1.60;;;11.10;99.90;;;;;;5064411;28;20751;-80
2023/05/11 03:47:27;;;;;;;2.17;1.33;;;11.10;99.90;;;;;;5059933;28;20472;-81
2023/05/11 03:49:54;;;;;;;2.70;1.60;;;11.00;99.90;;;;;;5042210;28;20596;-81
2023/05/11 03:52:21;;;;;;;2.95;1.60;;;11.00;99.90;;;;;;5059375;28;20442;-80
2023/05/11 03:54:47;;;;;;;2.80;1.50;;;11.00;99.90;;;;;;5042096;28;20389;-81
2023/05/11 03:57:13;;;;;;;2.30;1.55;;;11.00;99.90;;;;;;5059337;28;20385;-81
2023/05/11 03:59:39;;;;;;;3.28;1.30;;;11.00;99.90;;;;;;5058966;28;20847;-81
2023/05/11 04:02:05;;;;;;;4.20;1.57;;;11.00;99.90;;;;;;5059562;28;20398;-81
2023/05/11 04:04:31;;;;;;;1.88;1.30;;;10.50;99.90;;;;;;5042150;28;20399;-81
2023/05/11 04:07:00;;;;;;;2.65;1.42;;;11.00;99.90;;;;;;5059593;28;20405;-81
2023/05/11 04:09:26;;;;;;;2.63;1.20;;;11.00;99.90;;;;;;5058337;28;20425;-80
2023/05/11 04:11:51;;;;;;;2.33;1.30;;;10.60;99.90;;;;;;5058493;28;20392;-81
2023/05/11 04:14:17;;;;;;;2.00;1.30;;;10.80;99.90;;;;;;5058240;28;20381;-81
2023/05/11 04:16:43;;;;;;;2.40;1.38;;;10.80;99.90;;;;;;5060631;28;20440;-81
2023/05/11 04:19:09;;;;;;;1.60;1.50;;;10.90;99.90;;;;;;5053289;28;20881;-81
2023/05/11 04:21:34;;;;;;;3.13;1.45;;;11.00;99.90;;;;;;5056356;28;20447;-81
2023/05/11 04:24:00;;;;;;;3.20;1.40;;;12.10;99.90;;;;;;5058387;28;20764;-81
2023/05/11 04:26:26;;;;;;;1.90;1.50;;;10.50;99.90;;;;;;5079938;28;20368;-81
2023/05/11 04:28:52;;;;;;;2.20;1.25;;;11.10;99.90;;;;;;5061286;28;20394;-81
2023/05/11 04:31:17;;;;;;;2.60;1.60;;;10.30;99.90;;;;;;5079151;28;20379;-82
2023/05/11 04:33:43;;;;;;;3.77;1.50;;;10.80;99.90;;;;;;5060559;28;20383;-82
2023/05/11 04:36:08;;;;;;;2.63;2.13;;;11.00;99.90;;;;;;5068743;28;20384;-82
2023/05/11 04:38:36;;;;;;;2.80;1.50;;;11.00;99.90;;;;;;5076585;28;20431;-82
2023/05/11 04:41:05;;;;;;;2.53;1.80;;;11.10;99.90;;;;;;5084671;28;20415;-83
2023/05/11 04:43:31;;;;;;;4.30;1.60;;;10.70;99.90;;;;;;5062935;28;20380;-83
2023/05/11 04:45:58;;;;;;;1.50;1.33;;;11.00;99.90;;;;;;5061387;28;20384;-83
2023/05/11 04:48:25;;;;;;;2.15;1.38;;;11.00;99.90;;;;;;5080404;28;20513;-81
2023/05/11 04:50:50;;;;;;;2.60;1.60;;;11.10;99.90;;;;;;5067172;28;20445;-81
2023/05/11 04:53:16;;;;;;;3.33;1.60;;;11.10;99.90;;;;;;5085971;28;20391;-82
2023/05/11 04:55:41;;;;;;;2.80;1.60;;;11.10;99.90;;;;;;5064766;28;20393;-82
2023/05/11 04:58:07;;;;;;;2.47;1.40;;;11.20;99.90;;;;;;5059247;28;20389;-81
2023/05/11 05:00:33;;;;;;;2.75;1.70;;;11.80;99.90;;;;;;5043940;28;20445;-81
2023/05/11 05:02:58;;;;;;;2.17;1.50;;;11.10;99.90;;;;;;5085216;28;20376;-82
2023/05/11 05:05:24;;;;;;;4.80;2.40;;;11.10;99.90;;;;;;5086540;28;20404;-82
2023/05/11 05:07:49;;;;;;;3.20;2.17;;;10.40;99.90;;;;;;5080953;28;20395;-81
2023/05/11 05:10:15;;;;;;;3.50;2.15;;;11.10;99.90;;;;;;5075794;28;20486;-80
2023/05/11 05:12:40;;;;;;;2.57;1.83;;;11.10;99.90;;;;;;5082123;28;20388;-79
2023/05/11 05:15:08;;;;;;;2.60;2.10;;;10.50;99.90;;;;;;5076367;28;20414;-81
2023/05/11 05:17:33;;;;;;;4.38;2.72;;;11.20;99.90;;;;;;5094635;28;20404;-81
2023/05/11 05:19:59;;;;;;;4.60;2.10;;;11.30;99.90;;;;;;5094466;28;20473;-81
2023/05/11 05:22:25;;;;;;;2.30;2.10;;;11.20;99.90;;;;;;5095581;28;20378;-81
2023/05/11 05:24:50;;;;;;;3.35;1.88;;;10.80;99.90;;;;;;5098402;28;20386;-81
2023/05/11 05:27:16;;;;;;;1.73;1.60;;;11.80;99.90;;;;;;5098484;28;20384;-80
2023/05/11 05:29:41;;;;;;;2.00;1.60;;;11.20;99.90;;;;;;5066375;28;20471;-81
2023/05/11 05:32:07;;;;;;;3.80;1.90;;;11.10;99.90;;;;;;5050686;28;20451;-81
2023/05/11 05:34:33;;;;;;;2.03;1.30;;;11.30;99.90;;;;;;5066218;28;20385;-81
2023/05/11 05:36:58;;;;;;;3.60;1.60;;;10.90;99.90;;;;;;5066038;28;20381;-81
2023/05/11 05:39:24;;;;;;;3.00;1.70;;;11.40;99.90;;;;;;5040456;28;20398;-81
2023/05/11 05:41:49;;;;;;;2.20;1.70;;;11.40;99.90;;;;;;5040037;28;20389;-81
2023/05/11 05:44:15;;;;;;;3.75;1.70;;;11.40;99.90;;;;;;5039566;28;20381;-81
2023/05/11 05:46:41;;;;;;;2.45;1.60;;;11.50;99.90;;;;;;5039603;28;20385;-82
2023/05/11 05:49:06;;;;;;;1.90;1.50;;;11.30;99.90;;;;;;5056327;28;20396;-80
2023/05/11 05:51:32;;;;;;;1.83;1.50;;;11.50;99.90;;;;;;5040327;28;20507;-81
2023/05/11 05:53:57;;;;;;;1.40;1.20;;;11.50;99.90;;;;;;5056776;28;20381;-81
2023/05/11 05:56:23;;;;;;;3.20;1.40;;;11.20;99.90;;;;;;5038606;28;20378;-81
2023/05/11 05:58:48;;;;;;;2.90;1.40;;;11.80;99.90;;;;;;5039763;28;20404;-81
2023/05/11 06:01:14;;;;;;;2.63;1.23;;;11.90;99.90;;;;;;5057942;28;20813;-81
2023/05/11 06:03:40;;;;;;;3.92;1.70;;;12.00;99.90;;;;;;5058188;28;20382;-81
2023/05/11 06:06:06;;;;;;;2.50;1.77;;;11.90;99.90;;;;;;5060781;28;20397;-81
2023/05/11 06:08:32;;;;;;;2.10;1.60;;;12.10;99.90;;;;;;5040459;28;20390;-82
2023/05/11 06:10:57;;;;;;;2.20;1.70;;;11.90;99.90;;;;;;5057816;28;20385;-81
2023/05/11 06:13:23;;;;;;;3.57;1.70;;;12.00;99.90;;;;;;5058105;28;20393;-82
2023/05/11 06:15:48;;;;;;;2.00;1.50;;;12.00;99.90;;;;;;5057214;28;20551;-82
2023/05/11 06:18:14;;;;;;;1.93;1.70;;;12.20;99.90;;;;;;5058085;28;20390;-81
2023/05/11 06:20:40;;;;;;;2.45;1.30;;;12.10;99.90;;;;;;5056564;28;20409;-81
2023/05/11 06:23:05;;;;;;;2.85;1.45;;;12.10;99.90;;;;;;5040017;28;20453;-81
2023/05/11 06:25:34;;;;;;;2.07;1.50;;;12.00;99.90;;;;;;5056616;28;20381;-81
2023/05/11 06:28:00;;;;;;;2.60;1.40;;;11.90;99.90;;;;;;5057175;28;20860;-80
2023/05/11 06:30:25;;;;;;;3.73;1.50;;;12.10;99.90;;;;;;5057061;28;20446;-80
2023/05/11 06:32:51;;;;;;;2.00;1.57;;;12.10;99.90;;;;;;5055592;28;21091;-81
2023/05/11 06:35:16;;;;;;;3.10;1.67;;;11.80;99.90;;;;;;5038682;28;20377;-81
2023/05/11 06:37:42;;;;;;;2.28;1.60;;;11.90;99.90;;;;;;5037778;28;20397;-81
2023/05/11 06:40:08;;;;;;;3.33;1.40;;;12.00;99.90;;;;;;5038917;28;20405;-81
2023/05/11 06:42:34;;;;;;;2.72;1.50;;;12.30;99.90;;;;;;5038675;28;20404;-81
2023/05/11 06:45:00;;;;;;;2.10;1.55;;;12.80;99.90;;;;;;5056032;28;20397;-80
2023/05/11 06:47:25;;;;;;;2.85;1.20;;;15.10;99.90;;;;;;5056008;28;20750;-81
2023/05/11 06:49:51;;;;;;;2.17;1.58;;;12.30;99.90;;;;;;5037353;28;20810;-81
2023/05/11 06:52:16;;;;;;;2.33;1.40;;;12.90;99.90;;;;;;5037651;28;20861;-81
2023/05/11 06:54:42;;;;;;;1.90;1.50;;;12.30;99.90;;;;;;5060682;28;20406;-81
2023/05/11 06:57:08;;;;;;;1.60;1.40;;;12.30;99.90;;;;;;5074528;28;20422;-81
2023/05/11 06:59:33;;;;;;;1.75;1.60;;;12.40;99.90;;;;;;5057530;28;20408;-81
2023/05/11 07:01:59;;;;;;;3.20;1.40;;;12.40;99.90;;;;;;5075601;28;20380;-82
2023/05/11 07:04:25;;;;;;;3.60;1.58;;;12.40;99.90;;;;;;5059692;28;20951;-81
2023/05/11 07:06:50;;;;;;;3.67;1.53;;;12.10;99.90;;;;;;5060336;28;20432;-81
2023/05/11 07:09:16;;;;;;;2.20;1.40;;;12.20;99.90;;;;;;5060782;28;20388;-81
2023/05/11 07:11:41;;;;;;;2.90;2.00;;;12.40;99.90;;;;;;5042693;28;20752;-81
2023/05/11 07:14:07;;;;;;;2.17;1.85;;;12.50;99.90;;;;;;5060906;28;20428;-81
2023/05/11 07:16:36;;;;;;;3.58;1.73;;;12.50;99.90;;;;;;5060502;28;20443;-82
2023/05/11 07:19:07;;;;;;;2.00;1.48;;;12.30;99.90;;;;;;5041968;28;20398;-81
2023/05/11 07:21:34;;;;;;;2.70;1.65;;;12.40;99.90;;;;;;5060429;28;20385;-83
2023/05/11 07:23:59;;;;;;;2.00;1.60;;;12.50;99.90;;;;;;5059820;28;20377;-82
2023/05/11 07:26:25;;;;;;;1.80;1.40;;;12.20;99.90;;;;;;5041339;28;20382;-82
2023/05/11 07:28:50;;;;;;;2.00;1.08;;;12.60;99.90;;;;;;5041523;28;20440;-82
2023/05/11 07:31:16;;;;;;;1.20;1.10;;;12.70;99.90;;;;;;5041639;28;20903;-82
2023/05/11 07:33:42;;;;;;;2.60;1.40;;;12.40;99.90;;;;;;5042355;28;20390;-81
2023/05/11 07:36:07;;;;;;;1.52;1.20;;;12.80;99.90;;;;;;5057547;28;20425;-81
2023/05/11 07:38:33;;;;;;;1.70;1.60;;;12.50;99.90;;;;;;5057954;28;20393;-81
2023/05/11 07:40:58;;;;;;;1.90;1.40;;;12.70;99.90;;;;;;5057951;28;20410;-80
2023/05/11 07:43:24;;;;;;;2.17;1.47;;;12.70;99.90;;;;;;5040036;28;20393;-81
2023/05/11 07:45:50;;;;;;;3.00;1.20;;;12.30;99.90;;;;;;5057744;28;20407;-81
2023/05/11 07:48:16;;;;;;;2.00;1.30;;;12.90;99.90;;;;;;5057881;28;20498;-81
2023/05/11 07:50:42;;;;;;;1.50;1.40;;;12.80;99.90;;;;;;5040772;28;20774;-81
2023/05/11 07:53:08;;;;;;;2.20;1.48;;;13.00;99.90;;;;;;5040146;28;20390;-81
2023/05/11 07:55:34;;;;;;;2.00;1.27;;;12.70;99.90;;;;;;5070911;28;20387;-81
2023/05/11 07:58:00;;;;;;;1.90;1.30;;;13.00;99.90;;;;;;5059914;28;20387;-81
2023/05/11 08:00:25;;;;;;;4.90;1.50;;;13.00;99.90;;;;;;5078442;28;20446;-82
2023/05/11 08:02:51;;;;;;;1.95;1.55;;;13.10;99.90;;;;;;5059940;28;20408;-81
2023/05/11 08:05:18;;;;;;;1.73;1.60;;;12.90;99.90;;;;;;5050065;28;20465;-81
2023/05/11 08:07:43;;;;;;;1.70;1.60;;;12.10;99.90;;;;;;5039415;28;20377;-81
2023/05/11 08:10:10;;;;;;;1.65;1.48;;;12.50;99.90;;;;;;5057493;28;20416;-81
2023/05/11 08:12:35;;;;;;;1.40;1.30;;;12.90;99.90;;;;;;5040086;28;20389;-81
2023/05/11 08:15:02;;;;;;;1.30;1.20;;;12.90;99.90;;;;;;5039818;28;20389;-82
2023/05/11 08:17:29;;;;;;;2.28;1.20;;;;;;;;;;5039397;28;20435;-81
2023/05/11 08:19:55;;;;;;;2.60;1.20;;;12.90;99.90;;;;;;5057994;28;20406;-81
2023/05/11 08:22:20;;;;;;;2.47;1.80;;;12.40;99.90;;;;;;5057559;28;20385;-81
2023/05/11 08:24:46;;;;;;;2.33;1.60;;;12.80;99.90;;;;;;5069323;28;20408;-81
2023/05/11 08:27:13;;;;;;;2.20;1.50;;;13.00;99.90;;;;;;5075145;28;20428;-82
2023/05/11 08:29:38;;;;;;;1.92;1.13;;;12.90;99.90;;;;;;5052453;28;20397;-82
2023/05/11 08:32:04;;;;;;;1.40;1.10;;;14.40;99.90;;;;;;5058533;28;20389;-82
2023/05/11 08:34:30;;;;;;;1.80;1.00;;;13.10;99.90;;;;;;5058300;28;20393;-81
2023/05/11 08:36:55;;;;;;;1.80;1.50;;;13.60;99.90;;;;;;5057908;28;20527;-82
2023/05/11 08:39:21;;;;;;;1.50;1.40;;;13.00;99.90;;;;;;5040283;28;20415;-82
2023/05/11 08:41:48;;;;;;;1.40;1.30;;;13.20;99.90;;;;;;5039734;28;20401;-82
2023/05/11 08:44:15;;;;;;;2.08;1.48;;;13.20;99.90;;;;;;5058897;28;20751;-82
2023/05/11 08:46:46;;;;;;;1.63;1.52;;;12.90;99.90;;;;;;5043079;28;20385;-81
2023/05/11 08:49:13;;;;;;;2.30;1.50;;;13.20;99.90;;;;;;5064315;28;20742;-82
2023/05/11 08:51:39;;;;;;;2.75;1.80;;;12.80;99.90;;;;;;5048247;28;20381;-82
2023/05/11 08:54:06;;;;;;;2.63;1.40;;;13.00;99.90;;;;;;5048088;28;20962;-82
2023/05/11 08:56:33;;;;;;;1.70;1.50;;;13.10;99.90;;;;;;5059614;28;20434;-82
2023/05/11 08:59:01;;;;;;;1.55;1.45;;;13.20;99.90;;;;;;5059942;28;20471;-82
2023/05/11 09:01:27;;;;;;;1.85;1.67;;;13.10;99.90;;;;;;5077355;28;20781;-81
2023/05/11 09:03:55;;;;;;;2.30;1.80;;;13.00;99.90;;;;;;5059693;28;20388;-82
2023/05/11 09:06:21;;;;;;;2.00;1.80;;;13.40;99.90;;;;;;5058656;28;20390;-82
2023/05/11 09:08:47;;;;;;;3.40;1.50;;;12.90;99.90;;;;;;5076723;28;21073;-82
2023/05/11 09:11:13;;;;;;;1.30;1.20;;;13.40;99.90;;;;;;5059499;28;20435;-82
2023/05/11 09:13:39;;;;;;;1.57;1.47;;;13.50;99.90;;;;;;5078177;28;20934;-81
2023/05/11 09:16:05;;;;;;;2.73;1.70;;;13.40;99.90;;;;;;5077095;28;20384;-81
2023/05/11 09:18:30;;;;;;;2.43;1.47;;;13.40;99.90;;;;;;5059290;28;20444;-81
2023/05/11 09:20:56;;;;;;;1.55;1.45;;;13.50;99.90;;;;;;5058473;28;20909;-81
2023/05/11 09:23:25;;;;;;;2.47;1.83;;;13.60;99.90;;;;;;5058758;28;20380;-81
2023/05/11 09:25:51;;;;;;;2.40;1.50;;;12.80;99.90;;;;;;5058298;28;20422;-82
2023/05/11 09:28:21;;;;;;;1.60;1.50;;;13.20;99.90;;;;;;5058398;28;20392;-81
2023/05/11 09:30:46;;;;;;;1.90;1.70;;;13.20;99.90;;;;;;5076770;28;20756;-82
2023/05/11 09:33:21;;;;;;;3.10;1.93;;;13.00;99.90;;;;;;5076165;28;20387;-81
2023/05/11 09:35:47;;;;;;;2.10;1.70;;;13.00;99.90;;;;;;5075509;28;20416;-81
2023/05/11 09:38:15;;;;;;;2.73;1.80;;;12.80;99.90;;;;;;5058367;28;21349;-82
2023/05/11 09:40:53;;;;;;;2.10;1.80;;;13.50;99.90;;;;;;5057665;28;20412;-82
2023/05/11 09:43:24;;;;;;;3.30;1.90;;;12.90;99.90;;;;;;5068441;22;20429;-81
2023/05/11 09:45:52;;;;;;;1.90;1.65;;;13.20;99.90;;;;;;5039601;28;20389;-82
2023/05/11 09:48:18;;;;;;;1.90;1.70;;;13.00;99.90;;;;;;5057559;28;20384;-82
2023/05/11 09:50:44;;;;;;;2.00;1.80;;;13.30;99.90;;;;;;5040329;28;20763;-82
2023/05/11 09:53:10;;;;;;;2.45;1.70;;;13.90;99.90;;;;;;5057987;28;20473;-82
2023/05/11 09:55:36;;;;;;;1.83;1.65;;;14.00;99.90;;;;;;5058720;28;20408;-82
2023/05/11 09:58:03;;;;;;;1.55;1.45;;;14.10;99.90;;;;;;5058525;28;20837;-82
2023/05/11 10:00:29;;;;;;;1.57;1.40;;;14.30;99.90;;;;;;5042201;28;20405;-81
2023/05/11 10:03:03;;;;;;;1.90;1.58;;;14.20;99.90;;;;;;5059115;28;20389;-82
2023/05/11 10:05:31;;;;;;;1.83;1.27;;;14.40;99.90;;;;;;5058542;28;20396;-81
2023/05/11 10:08:01;;;;;;;1.35;1.15;;;14.60;99.90;;;;;;5041441;28;20389;-84
2023/05/11 10:10:30;;;;;;;2.28;1.20;;;14.70;99.90;;;;;;5041725;28;20488;-83
2023/05/11 10:13:00;;;;;;;1.83;1.35;;;14.80;99.90;;;;;;5056603;28;20387;-81
2023/05/11 10:15:27;;;;;;;1.63;1.40;;;14.90;82.50;;;;;;5056920;28;20393;-82
2023/05/11 10:17:55;;;;;;;1.60;1.50;;;15.00;59.60;;;;;;5058919;28;20392;-80
2023/05/11 10:20:21;;;;;;;2.20;1.40;;;15.20;56.70;;;;;;5068737;28;20409;-81
2023/05/11 10:22:46;;;;;;;1.60;1.30;;;15.30;50.30;;;;;;5061178;28;20389;-82
2023/05/11 10:25:14;;;;;;;1.20;1.10;;;14.90;78.90;;;;;;5040342;28;20377;-81
2023/05/11 10:27:39;;;;;;;2.50;1.20;;;14.80;90.20;;;;;;5036606;28;20385;-81
2023/05/11 10:30:07;;;;;;;2.00;1.00;;;14.20;38.90;;;;;;5055936;28;20451;-81
2023/05/11 10:32:36;;;;;;;2.40;1.17;;;14.60;45.50;;;;;;5038751;28;20418;-82
2023/05/11 10:35:03;;;;;;;1.45;1.30;;;14.50;99.90;;;;;;5038354;28;20902;-82
2023/05/11 10:37:29;;;;;;;1.27;1.17;;;14.40;99.90;;;;;;5055574;28;20398;-81
2023/05/11 10:39:56;;;;;;;2.00;1.50;;;14.50;69.90;;;;;;5040753;28;20408;-81
2023/05/11 10:42:36;;;;;;;1.30;1.10;;;14.50;52.90;;;;;;5043386;28;20927;-81
2023/05/11 10:45:36;;;;;;;1.35;1.25;;;14.30;99.90;;;;;;5043498;28;20469;-82
2023/05/11 10:48:31;;;;;;;2.85;1.17;;;14.30;99.90;;;;;;5060275;28;20392;-82
2023/05/11 10:51:22;;;;;;;1.30;1.20;;;14.30;55.70;;;;;;5040703;28;20476;-81
2023/05/11 10:54:03;;;;;;;2.10;1.30;;;14.30;75.90;;;;;;5058569;28;20394;-81
2023/05/11 10:56:53;;;;;;;2.10;1.40;;;14.10;99.20;;;;;;5038808;28;20430;-82
2023/05/11 10:59:45;;;;;;;2.75;1.58;;;13.90;99.90;;;;;;5021064;28;20406;-82
2023/05/11 11:02:10;;;;;;;2.00;1.52;;;13.90;99.90;;;;;;5021629;28;20395;-81
2023/05/11 11:04:46;;;;;;;2.40;1.17;;;13.60;99.90;;;;;;5024913;28;20748;-81
2023/05/11 11:07:16;;;;;;;2.10;1.70;;;13.80;99.90;;;;;;5060266;28;20760;-82
2023/05/11 11:09:58;;;;;;;2.30;1.75;;;13.90;99.90;;;;;;5046599;28;20392;-80
2023/05/11 11:12:26;;;;;;;1.67;1.42;;;13.90;99.90;;;;;;5048751;28;20400;-82
2023/05/11 11:14:58;;;;;;;1.67;1.40;;;13.80;99.90;;;;;;5051268;28;20396;-82
2023/05/11 11:17:30;;;;;;;2.47;1.70;;;13.90;99.90;;;;;;5067519;28;20424;-82
2023/05/11 11:19:56;;;;;;;1.90;1.70;;;14.10;99.90;;;;;;5066971;28;20767;-82
2023/05/11 11:22:33;;;;;;;2.72;1.63;;;14.50;99.90;;;;;;5060555;28;20409;-82
2023/05/11 11:24:59;;;;;;;1.80;1.70;;;14.40;99.90;;;;;;5044957;28;20408;-82
2023/05/11 11:27:43;;;;;;;2.33;2.13;;;14.30;99.90;;;;;;5064706;28;20473;-81
2023/05/11 11:30:27;;;;;;;2.70;1.67;;;14.40;99.90;;;;;;5061513;28;20389;-81
2023/05/11 11:33:14;;;;;;;2.22;1.70;;;14.30;99.90;;;;;;5042607;28;20447;-80
2023/05/11 11:35:43;;;;;;;3.00;1.90;;;14.40;99.90;;;;;;5034609;28;20407;-81
2023/05/11 11:38:13;;;;;;;2.03;1.80;;;14.00;99.90;;;;;;5062019;28;20499;-81
2023/05/11 11:40:40;;;;;;;2.20;1.70;;;14.10;99.90;;;;;;5066997;28;20407;-82
2023/05/11 11:43:10;;;;;;;3.27;1.73;;;14.10;99.90;;;;;;5045068;28;20405;-82
2023/05/11 11:45:37;;;;;;;3.30;2.00;;;14.30;99.90;;;;;;5059813;28;20414;-81
2023/05/11 11:48:20;;;;;;;2.80;1.90;;;14.50;99.90;;;;;;5046064;28;20400;-82
2023/05/11 11:50:47;;;;;;;2.40;1.70;;;16.10;99.90;;;;;;5043353;28;20392;-82
2023/05/11 11:53:40;;;;;;;2.25;2.05;;;15.00;99.90;;;;;;5058722;28;20389;-82
2023/05/11 11:56:26;;;;;;;2.08;1.90;;;15.20;99.90;;;;;;5056975;28;20373;-81
2023/05/11 11:58:52;;;;;;;1.70;1.60;;;15.30;99.90;;;;;;5058857;28;20401;-82
2023/05/11 12:01:22;;;;;;;2.63;1.90;;;15.20;99.90;;;;;;5035184;28;20405;-80
2023/05/11 12:04:15;;;;;;;3.47;1.90;;;15.50;92.60;;;;;;5039378;28;20447;-82
2023/05/11 12:06:43;;;;;;;3.15;1.73;;;16.10;81.60;;;;;;5037973;28;20418;-82
2023/05/11 12:09:09;;;;;;;1.80;1.70;;;16.20;39.20;;;;;;5037833;28;20400;-82
2023/05/11 12:11:37;;;;;;;2.55;1.50;;;15.80;57.40;;;;;;5060612;28;20397;-82
2023/05/11 12:14:02;;;;;;;1.55;1.45;;;15.30;43.40;;;;;;5059458;28;20381;-84
2023/05/11 12:16:28;;;;;;;1.40;1.30;;;15.60;99.90;;;;;;5041515;28;20895;-82
2023/05/11 12:18:57;;;;;;;2.00;1.50;;;15.50;99.90;;;;;;5041506;28;20381;-82
2023/05/11 12:21:26;;;;;;;1.50;1.40;;;15.80;50.50;;;;;;5060557;28;20531;-82
2023/05/11 12:24:10;;;;;;;1.90;1.20;;;15.70;74.70;;;;;;5057764;28;20807;-81
2023/05/11 12:26:36;;;;;;;2.30;1.30;;;16.20;18.10;;;;;;5040728;28;20393;-82
2023/05/11 12:29:12;;;;;;;1.40;1.30;;;16.20;21.70;;;;;;5058843;28;20382;-83
2023/05/11 12:31:42;;;;;;;4.80;1.50;;;15.80;25.90;;;;;;5040217;28;20405;-82
2023/05/11 12:34:20;;;;;;;1.73;1.40;;;15.80;18.10;;;;;;5057081;28;21072;-82
2023/05/11 12:36:47;;;;;;;1.83;1.42;;;15.70;18.10;;;;;;5056646;28;20841;-82
2023/05/11 12:39:20;;;;;;;1.30;1.20;;;15.40;63.20;;;;;;5038530;28;20389;-81
2023/05/11 12:41:48;;;;;;;1.23;1.00;;;14.60;45.50;;;;;;5039319;28;20381;-82
2023/05/11 12:44:15;;;;;;;1.60;1.50;;;14.10;99.90;;;;;;5056679;28;20400;-81
2023/05/11 12:46:41;;;;;;;1.40;1.30;;;13.70;99.90;;;;;;5056217;28;20381;-82
2023/05/11 12:49:08;;;;;;;1.35;0.90;;;13.40;99.90;;;;;;5054361;28;20428;-81
2023/05/11 12:51:48;;;;;;;1.40;1.30;;;13.00;99.90;;;;;;5037409;28;20435;-82
2023/05/11 12:54:28;;;;;;;2.20;1.40;;;12.60;99.90;;;;;;5036244;28;20413;-82